createdAt,value
2019-03-27T00:00:30.279Z,47.62
2019-03-27T00:02:59.491Z,48.03
2019-03-27T00:05:28.702Z,46.90
2019-03-27T00:07:58.086Z,47.26
2019-03-27T00:10:27.441Z,46.37
2019-03-27T00:12:56.829Z,47.74
2019-03-27T00:15:26.192Z,49.63
2019-03-27T00:17:55.358Z,48.95
2019-03-27T00:20:24.754Z,49.10
2019-03-27T00:22:53.889Z,48.47
2019-03-27T00:25:23.030Z,46.21
2019-03-27T00:27:52.151Z,44.43
2019-03-27T00:30:21.298Z,45.19
2019-03-27T00:32:50.673Z,45.24
2019-03-27T00:35:19.887Z,46.71
2019-03-27T00:37:49.023Z,45.99
2019-03-27T00:40:18.175Z,46.60
2019-03-27T00:42:47.330Z,45.57
2019-03-27T00:45:26.509Z,45.90
2019-03-27T00:47:47.458Z,46.83
2019-03-27T00:50:16.891Z,46.45
2019-03-27T00:52:46.033Z,46.30
2019-03-27T00:55:15.527Z,45.40
2019-03-27T00:57:44.647Z,46.76
2019-03-27T01:00:25.017Z,46.53
2019-03-27T01:02:54.760Z,45.14
2019-03-27T01:05:24.193Z,46.07
2019-03-27T01:07:53.326Z,47.08
2019-03-27T01:10:22.801Z,46.90
2019-03-27T01:12:51.946Z,46.63
2019-03-27T01:15:21.095Z,46.09
2019-03-27T01:17:50.459Z,47.02
2019-03-27T01:20:19.602Z,45.75
2019-03-27T01:22:48.974Z,45.16
2019-03-27T01:25:18.114Z,45.41
2019-03-27T01:27:47.480Z,45.10
2019-03-27T01:30:17.387Z,48.23
2019-03-27T01:32:46.546Z,48.36
2019-03-27T01:35:15.754Z,46.50
2019-03-27T01:37:44.927Z,45.46
2019-03-27T01:40:14.254Z,45.85
2019-03-27T01:42:43.401Z,46.25
2019-03-27T01:45:12.678Z,47.03
2019-03-27T01:47:41.809Z,47.00
2019-03-27T01:50:11.140Z,45.90
2019-03-27T01:52:40.275Z,46.94
2019-03-27T01:55:10.223Z,46.55
2019-03-27T01:57:39.368Z,47.10
2019-03-27T02:00:09.663Z,47.43
2019-03-27T02:02:38.857Z,46.08
2019-03-27T02:05:08.359Z,46.09
2019-03-27T02:07:37.490Z,48.24
2019-03-27T02:10:07.708Z,46.54
2019-03-27T02:12:36.856Z,45.36
2019-03-27T02:15:06.823Z,46.30
2019-03-27T02:17:36.198Z,48.11
2019-03-27T02:20:06.015Z,47.13
2019-03-27T02:22:35.165Z,46.69
2019-03-27T02:25:04.385Z,47.33
2019-03-27T02:27:33.554Z,47.44
2019-03-27T02:30:03.447Z,49.00
2019-03-27T02:32:32.827Z,47.45
2019-03-27T02:35:01.983Z,47.67
2019-03-27T02:37:31.740Z,46.96
2019-03-27T02:40:00.909Z,46.80
2019-03-27T02:42:30.039Z,47.81
2019-03-27T02:44:59.423Z,47.38
2019-03-27T02:47:29.024Z,46.85
2019-03-27T02:49:58.163Z,46.55
2019-03-27T02:52:27.309Z,46.93
2019-03-27T02:54:56.688Z,47.05
2019-03-27T02:57:25.915Z,46.32
2019-03-27T02:59:56.046Z,46.37
2019-03-27T03:02:25.174Z,45.59
2019-03-27T03:04:54.298Z,46.67
2019-03-27T03:07:23.437Z,48.17
2019-03-27T03:09:52.576Z,48.83
2019-03-27T03:12:21.943Z,47.16
2019-03-27T03:14:51.103Z,47.85
2019-03-27T03:17:20.935Z,47.23
2019-03-27T03:19:50.593Z,46.96
2019-03-27T03:22:20.188Z,46.47
2019-03-27T03:24:49.354Z,48.05
2019-03-27T03:27:18.483Z,47.41
2019-03-27T03:29:47.717Z,48.05
2019-03-27T03:32:17.347Z,47.25
2019-03-27T03:34:46.728Z,47.00
2019-03-27T03:37:16.131Z,48.44
2019-03-27T03:39:45.249Z,47.52
2019-03-27T03:42:14.366Z,49.62
2019-03-27T03:44:43.727Z,49.82
2019-03-27T03:47:13.079Z,50.11
2019-03-27T03:49:42.748Z,48.16
2019-03-27T03:52:11.870Z,47.02
2019-03-27T03:54:41.109Z,46.65
2019-03-27T03:57:10.550Z,46.37
2019-03-27T03:59:40.940Z,46.23
2019-03-27T04:02:10.064Z,45.86
2019-03-27T04:04:39.267Z,46.99
2019-03-27T04:07:08.396Z,46.65
2019-03-27T04:09:37.539Z,46.89
2019-03-27T04:12:06.726Z,47.02
2019-03-27T04:14:35.871Z,47.30
2019-03-27T04:17:16.768Z,47.30
2019-03-27T04:19:36.086Z,46.54
2019-03-27T04:22:05.452Z,46.63
2019-03-27T04:24:34.577Z,46.83
2019-03-27T04:27:03.698Z,47.46
2019-03-27T04:29:32.813Z,47.63
2019-03-27T04:32:02.176Z,47.50
2019-03-27T04:34:31.392Z,46.85
2019-03-27T04:37:00.720Z,46.20
2019-03-27T04:39:29.932Z,47.72
2019-03-27T04:41:59.299Z,47.07
2019-03-27T04:44:28.460Z,47.74
2019-03-27T04:46:57.547Z,47.63
2019-03-27T04:49:26.678Z,47.53
2019-03-27T04:51:56.070Z,48.86
2019-03-27T04:54:27.057Z,47.10
2019-03-27T04:56:56.265Z,46.61
2019-03-27T04:59:25.391Z,46.59
2019-03-27T05:01:54.523Z,46.01
2019-03-27T05:04:24.297Z,46.53
2019-03-27T05:06:53.445Z,47.48
2019-03-27T05:09:22.805Z,47.37
2019-03-27T05:11:52.181Z,45.93
2019-03-27T05:14:21.314Z,47.64
2019-03-27T05:16:50.460Z,48.41
2019-03-27T05:19:19.628Z,46.96
2019-03-27T05:21:48.779Z,46.35
2019-03-27T05:24:17.907Z,46.37
2019-03-27T05:26:47.069Z,47.87
2019-03-27T05:29:16.195Z,47.96
2019-03-27T05:31:45.330Z,47.72
2019-03-27T05:34:14.435Z,47.75
2019-03-27T05:36:43.599Z,47.31
2019-03-27T05:39:14.588Z,47.85
2019-03-27T05:41:43.960Z,48.15
2019-03-27T05:44:13.092Z,48.23
2019-03-27T05:46:42.206Z,48.26
2019-03-27T05:49:11.340Z,47.50
2019-03-27T05:51:40.590Z,48.29
2019-03-27T05:54:09.814Z,46.27
2019-03-27T05:56:39.906Z,46.08
2019-03-27T05:59:09.336Z,46.77
2019-03-27T06:01:38.473Z,47.12
2019-03-27T06:04:07.639Z,47.39
2019-03-27T06:06:37.027Z,46.41
2019-03-27T06:09:06.998Z,46.51
2019-03-27T06:11:36.483Z,46.71
2019-03-27T06:14:05.785Z,46.27
2019-03-27T06:16:34.928Z,46.46
2019-03-27T06:19:05.540Z,45.95
2019-03-27T06:21:35.270Z,45.90
2019-03-27T06:24:05.489Z,46.26
2019-03-27T06:26:34.655Z,46.70
2019-03-27T06:29:03.894Z,46.23
2019-03-27T06:31:33.267Z,45.34
2019-03-27T06:34:02.743Z,44.77
2019-03-27T06:36:32.150Z,45.81
2019-03-27T06:39:02.085Z,45.56
2019-03-27T06:41:31.487Z,43.08
2019-03-27T06:44:00.638Z,43.29
2019-03-27T06:46:29.834Z,42.50
2019-03-27T06:48:59.083Z,41.16
2019-03-27T06:51:39.521Z,41.49
2019-03-27T06:53:59.367Z,42.72
2019-03-27T06:56:28.493Z,42.73
2019-03-27T06:58:57.724Z,45.38
2019-03-27T07:01:26.855Z,45.26
2019-03-27T07:04:09.546Z,44.98
2019-03-27T07:06:26.854Z,44.40
2019-03-27T07:08:55.974Z,45.71
2019-03-27T07:11:25.192Z,46.51
2019-03-27T07:13:54.558Z,47.07
2019-03-27T07:16:23.696Z,44.65
2019-03-27T07:18:52.830Z,46.30
2019-03-27T07:21:22.226Z,44.45
2019-03-27T07:23:51.352Z,44.66
2019-03-27T07:26:20.972Z,44.12
2019-03-27T07:28:50.366Z,44.26
2019-03-27T07:31:20.189Z,43.70
2019-03-27T07:33:49.568Z,46.09
2019-03-27T07:36:18.703Z,46.22
2019-03-27T07:38:47.866Z,43.73
2019-03-27T07:41:17.243Z,43.98
2019-03-27T07:43:46.383Z,46.19
2019-03-27T07:46:15.514Z,44.65
2019-03-27T07:48:53.705Z,43.09
2019-03-27T07:51:15.869Z,42.47
2019-03-27T07:53:45.232Z,42.85
2019-03-27T07:56:14.431Z,42.64
2019-03-27T07:58:43.814Z,41.50
2019-03-27T08:01:13.861Z,41.50
2019-03-27T08:03:43.230Z,41.75
2019-03-27T08:06:12.349Z,42.25
2019-03-27T08:08:41.482Z,42.78
2019-03-27T08:11:10.638Z,42.78
2019-03-27T08:13:39.989Z,39.31
2019-03-27T08:16:09.127Z,39.81
2019-03-27T08:18:38.974Z,39.99
2019-03-27T08:21:08.115Z,39.99
2019-03-27T08:23:37.235Z,40.85
2019-03-27T08:26:06.437Z,40.94
2019-03-27T08:28:35.821Z,40.04
2019-03-27T08:31:05.741Z,40.04
2019-03-27T08:33:35.114Z,41.32
2019-03-27T08:36:04.241Z,41.28
2019-03-27T08:38:33.452Z,39.61
2019-03-27T08:41:02.604Z,40.99
2019-03-27T08:43:31.948Z,39.28
2019-03-27T08:46:01.135Z,40.59
2019-03-27T08:48:30.255Z,40.71
2019-03-27T08:50:59.411Z,42.00
2019-03-27T08:53:28.761Z,42.00
2019-03-27T08:55:57.964Z,38.92
2019-03-27T08:58:27.091Z,38.92
2019-03-27T09:00:56.332Z,37.54
2019-03-27T09:03:25.455Z,36.88
2019-03-27T09:05:54.611Z,36.72
2019-03-27T09:08:23.746Z,32.95
2019-03-27T09:10:52.885Z,30.24
2019-03-27T09:13:23.028Z,28.54
2019-03-27T09:15:53.206Z,26.28
2019-03-27T09:18:22.596Z,30.04
2019-03-27T09:20:51.721Z,28.07
2019-03-27T09:23:21.113Z,27.48
2019-03-27T09:25:50.236Z,27.52
2019-03-27T09:28:19.393Z,28.34
2019-03-27T09:30:49.013Z,28.17
2019-03-27T09:33:18.403Z,31.99
2019-03-27T09:35:47.546Z,31.09
2019-03-27T09:38:21.939Z,28.70
2019-03-27T09:40:51.062Z,30.18
2019-03-27T09:43:20.190Z,29.28
2019-03-27T09:45:49.324Z,27.46
2019-03-27T09:48:18.467Z,26.43
2019-03-27T09:50:47.620Z,25.67
2019-03-27T09:53:17.207Z,23.76
2019-03-27T09:55:46.361Z,24.43
2019-03-27T09:58:15.493Z,22.85
2019-03-27T10:01:09.355Z,24.72
2019-03-27T10:03:38.772Z,28.51
2019-03-27T10:06:08.031Z,28.91
2019-03-27T10:08:37.501Z,29.72
2019-03-27T10:11:06.831Z,27.85
2019-03-27T10:13:35.947Z,28.78
2019-03-27T10:16:05.284Z,30.00
2019-03-27T10:18:34.443Z,31.06
2019-03-27T10:21:03.665Z,29.46
2019-03-27T10:23:32.885Z,28.71
2019-03-27T10:26:02.266Z,28.97
2019-03-27T10:28:31.397Z,28.33
2019-03-27T10:31:00.882Z,30.46
2019-03-27T10:33:30.321Z,28.30
2019-03-27T10:35:59.486Z,26.77
2019-03-27T10:38:28.668Z,27.62
2019-03-27T10:40:57.794Z,27.06
2019-03-27T10:43:26.963Z,26.97
2019-03-27T10:45:56.063Z,29.24
2019-03-27T10:48:25.231Z,32.26
2019-03-27T10:50:54.454Z,29.48
2019-03-27T10:53:23.647Z,31.68
2019-03-27T10:55:52.809Z,32.14
2019-03-27T10:58:22.001Z,32.57
2019-03-27T11:00:51.480Z,30.70
2019-03-27T11:03:20.930Z,30.85
2019-03-27T11:05:50.799Z,29.59
2019-03-27T11:08:19.987Z,29.83
2019-03-27T11:10:49.128Z,28.59
2019-03-27T11:13:18.344Z,28.23
2019-03-27T11:15:47.566Z,28.92
2019-03-27T11:18:16.931Z,30.20
2019-03-27T11:20:46.098Z,30.02
2019-03-27T11:23:15.469Z,30.75
2019-03-27T11:25:44.906Z,29.82
2019-03-27T11:28:14.026Z,31.13
2019-03-27T11:30:43.566Z,30.32
2019-03-27T11:33:13.267Z,30.75
2019-03-27T11:35:42.940Z,30.92
2019-03-27T11:38:12.190Z,32.72
2019-03-27T11:40:41.327Z,32.30
2019-03-27T11:43:10.691Z,32.41
2019-03-27T11:45:39.910Z,31.66
2019-03-27T11:48:09.219Z,31.04
2019-03-27T11:50:44.851Z,31.32
2019-03-27T11:53:09.272Z,30.12
2019-03-27T11:55:38.427Z,29.05
2019-03-27T11:58:07.564Z,29.67
2019-03-27T12:00:36.927Z,27.90
2019-03-27T12:03:06.384Z,27.56
2019-03-27T12:05:35.499Z,28.66
2019-03-27T12:08:04.708Z,29.49
2019-03-27T12:10:33.843Z,28.62
2019-03-27T12:13:03.223Z,30.45
2019-03-27T12:15:48.593Z,28.44
2019-03-27T12:18:18.857Z,28.47
2019-03-27T12:20:58.134Z,30.25
2019-03-27T12:23:18.931Z,30.40
2019-03-27T12:25:48.068Z,29.97
2019-03-27T12:28:17.295Z,29.03
2019-03-27T12:30:46.683Z,30.03
2019-03-27T12:33:15.864Z,30.04
2019-03-27T12:35:45.310Z,30.33
2019-03-27T12:38:14.534Z,29.08
2019-03-27T12:40:43.991Z,29.73
2019-03-27T12:43:13.226Z,29.51
2019-03-27T12:45:42.457Z,28.46
2019-03-27T12:48:12.201Z,30.22
2019-03-27T12:50:44.280Z,29.94
2019-03-27T12:53:14.313Z,30.56
2019-03-27T12:55:44.160Z,31.13
2019-03-27T12:58:13.801Z,31.01
2019-03-27T13:00:43.020Z,30.88
2019-03-27T13:03:12.562Z,28.80
2019-03-27T13:05:41.932Z,29.75
2019-03-27T13:08:11.302Z,30.68
2019-03-27T13:10:40.443Z,30.47
2019-03-27T13:13:09.578Z,30.14
2019-03-27T13:15:38.726Z,30.16
2019-03-27T13:18:07.939Z,28.85
2019-03-27T13:20:37.086Z,29.31
2019-03-27T13:23:06.230Z,30.29
2019-03-27T13:25:35.401Z,30.40
2019-03-27T13:28:04.934Z,30.62
2019-03-27T13:30:34.060Z,30.84
2019-03-27T13:33:03.914Z,29.51
2019-03-27T13:35:33.069Z,29.20
2019-03-27T13:38:02.211Z,29.16
2019-03-27T13:40:31.388Z,30.42
2019-03-27T13:43:00.828Z,30.26
2019-03-27T13:45:30.882Z,29.81
2019-03-27T13:48:00.271Z,30.78
2019-03-27T13:50:29.416Z,31.06
2019-03-27T13:52:58.791Z,30.21
2019-03-27T13:55:30.776Z,29.95
2019-03-27T13:57:59.665Z,30.23
2019-03-27T14:00:28.909Z,29.99
2019-03-27T14:02:58.069Z,30.68
2019-03-27T14:05:28.218Z,30.66
2019-03-27T14:07:57.608Z,31.32
2019-03-27T14:10:26.843Z,30.55
2019-03-27T14:12:56.209Z,30.15
2019-03-27T14:15:25.647Z,30.21
2019-03-27T14:17:55.036Z,30.13
2019-03-27T14:20:24.495Z,31.21
2019-03-27T14:22:54.147Z,31.09
2019-03-27T14:25:23.483Z,29.79
2019-03-27T14:27:53.108Z,29.54
2019-03-27T14:30:52.642Z,30.57
2019-03-27T14:33:21.915Z,30.10
2019-03-27T14:35:51.082Z,29.90
2019-03-27T14:38:20.321Z,29.19
2019-03-27T14:40:49.830Z,31.11
2019-03-27T14:43:18.958Z,31.79
2019-03-27T14:45:48.279Z,30.26
2019-03-27T14:48:17.427Z,31.93
2019-03-27T14:50:46.812Z,32.39
2019-03-27T14:53:16.109Z,31.84
2019-03-27T14:55:45.370Z,31.51
2019-03-27T14:58:14.567Z,31.35
2019-03-27T15:00:43.995Z,32.09
2019-03-27T15:03:13.161Z,32.76
2019-03-27T15:05:42.524Z,31.99
2019-03-27T15:08:11.690Z,30.61
2019-03-27T15:10:40.927Z,29.37
2019-03-27T15:13:10.094Z,31.36
2019-03-27T15:15:39.248Z,32.30
2019-03-27T15:18:08.392Z,31.68
2019-03-27T15:20:37.554Z,32.25
2019-03-27T15:23:06.774Z,32.74
2019-03-27T15:25:35.920Z,33.28
2019-03-27T15:28:05.296Z,31.73
2019-03-27T15:30:34.791Z,31.41
2019-03-27T15:33:04.172Z,32.32
2019-03-27T15:35:33.570Z,33.13
2019-03-27T15:38:02.723Z,33.57
2019-03-27T15:40:40.051Z,34.65
2019-03-27T15:43:09.677Z,34.54
2019-03-27T15:45:38.889Z,34.23
2019-03-27T15:48:08.047Z,34.56
2019-03-27T15:50:37.887Z,34.89
2019-03-27T15:53:07.292Z,33.78
2019-03-27T15:55:36.683Z,33.64
2019-03-27T15:58:05.970Z,34.64
2019-03-27T16:00:35.333Z,34.28
2019-03-27T16:03:04.587Z,34.00
2019-03-27T16:05:33.806Z,35.69
2019-03-27T16:08:03.213Z,36.42
2019-03-27T16:10:42.394Z,37.91
2019-03-27T16:13:11.833Z,37.86
2019-03-27T16:15:41.002Z,38.87
2019-03-27T16:18:10.148Z,38.05
2019-03-27T16:20:39.440Z,39.27
2019-03-27T16:23:08.675Z,37.89
2019-03-27T16:25:37.830Z,37.52
2019-03-27T16:28:06.997Z,37.29
2019-03-27T16:30:36.152Z,37.29
2019-03-27T16:33:05.370Z,36.85
2019-03-27T16:35:34.626Z,36.53
2019-03-27T16:38:03.784Z,37.14
2019-03-27T16:40:57.832Z,36.02
2019-03-27T16:43:27.035Z,36.57
2019-03-27T16:45:56.459Z,36.49
2019-03-27T16:48:25.619Z,35.79
2019-03-27T16:50:54.814Z,35.93
2019-03-27T16:53:23.978Z,36.25
2019-03-27T16:55:53.467Z,36.92
2019-03-27T16:58:22.621Z,35.92
2019-03-27T17:00:52.549Z,37.13
2019-03-27T17:03:21.928Z,36.71
2019-03-27T17:05:54.230Z,37.77
2019-03-27T17:08:22.031Z,36.44
2019-03-27T17:10:51.459Z,36.24
2019-03-27T17:13:20.626Z,37.12
2019-03-27T17:15:50.052Z,38.00
2019-03-27T17:18:19.275Z,36.85
2019-03-27T17:20:48.415Z,36.69
2019-03-27T17:23:18.939Z,36.95
2019-03-27T17:25:48.372Z,38.10
2019-03-27T17:28:17.877Z,37.66
2019-03-27T17:30:47.341Z,38.97
2019-03-27T17:33:17.411Z,40.21
2019-03-27T17:35:46.847Z,40.15
2019-03-27T17:38:15.995Z,38.84
2019-03-27T17:40:45.142Z,39.36
2019-03-27T17:43:14.290Z,39.36
2019-03-27T17:45:43.687Z,39.50
2019-03-27T17:48:13.090Z,39.42
2019-03-27T17:50:42.486Z,39.42
2019-03-27T17:53:11.872Z,40.12
2019-03-27T17:55:41.013Z,39.54
2019-03-27T17:58:10.131Z,39.54
2019-03-27T18:00:53.474Z,39.96
2019-03-27T18:03:22.620Z,40.35
2019-03-27T18:05:51.870Z,40.75
2019-03-27T18:08:21.087Z,40.28
2019-03-27T18:10:56.679Z,41.14
2019-03-27T18:13:26.287Z,40.25
2019-03-27T18:15:55.989Z,40.60
2019-03-27T18:18:25.127Z,42.09
2019-03-27T18:20:54.320Z,43.79
2019-03-27T18:23:23.719Z,42.29
2019-03-27T18:25:52.956Z,42.08
2019-03-27T18:28:22.345Z,41.89
2019-03-27T18:30:51.539Z,42.02
2019-03-27T18:33:20.664Z,42.43
2019-03-27T18:35:49.815Z,41.69
2019-03-27T18:38:19.029Z,41.48
2019-03-27T18:40:48.196Z,42.07
2019-03-27T18:43:17.896Z,43.84
2019-03-27T18:45:47.143Z,43.15
2019-03-27T18:48:16.500Z,43.18
2019-03-27T18:50:45.729Z,43.96
2019-03-27T18:53:15.265Z,42.77
2019-03-27T18:55:44.439Z,43.89
2019-03-27T18:58:16.757Z,43.99
2019-03-27T19:01:05.167Z,43.77
2019-03-27T19:03:34.382Z,45.15
2019-03-27T19:06:14.911Z,45.58
2019-03-27T19:08:44.037Z,46.04
2019-03-27T19:11:32.144Z,46.42
2019-03-27T19:14:01.504Z,45.97
2019-03-27T19:16:30.644Z,45.24
2019-03-27T19:21:29.306Z,45.42
2019-03-27T19:23:58.388Z,45.18
2019-03-27T19:26:29.195Z,45.07
2019-03-27T19:28:58.375Z,47.18
2019-03-27T19:31:27.557Z,44.70
2019-03-27T19:33:56.951Z,44.72
2019-03-27T19:36:26.117Z,44.46
2019-03-27T19:38:55.342Z,45.36
2019-03-27T19:41:24.691Z,44.94
2019-03-27T19:43:54.148Z,45.16
2019-03-27T19:46:23.335Z,44.87
2019-03-27T19:48:52.627Z,44.75
2019-03-27T19:51:22.164Z,43.98
2019-03-27T19:53:51.479Z,44.11
2019-03-27T19:56:20.609Z,43.83
2019-03-27T19:58:49.772Z,44.29
2019-03-27T20:01:18.963Z,43.96
2019-03-27T20:03:48.118Z,44.31
2019-03-27T20:06:17.340Z,43.70
2019-03-27T20:08:46.487Z,44.09
2019-03-27T20:11:15.874Z,43.98
2019-03-27T20:13:44.996Z,43.74
2019-03-27T20:16:14.151Z,44.28
2019-03-27T20:18:43.264Z,45.48
2019-03-27T20:21:12.480Z,45.60
2019-03-27T20:23:41.620Z,45.87
2019-03-27T20:26:10.776Z,44.19
2019-03-27T20:28:39.929Z,44.76
2019-03-27T20:31:09.070Z,44.81
2019-03-27T20:33:38.401Z,45.24
2019-03-27T20:36:07.542Z,46.21
2019-03-27T20:38:36.672Z,46.50
2019-03-27T20:41:05.868Z,45.94
2019-03-27T20:43:35.010Z,46.38
2019-03-27T20:46:04.307Z,46.43
2019-03-27T20:48:33.442Z,45.98
2019-03-27T20:51:02.851Z,46.50
2019-03-27T20:53:31.998Z,46.21
2019-03-27T20:56:01.395Z,46.11
2019-03-27T20:58:30.542Z,46.16
2019-03-27T21:00:59.675Z,46.45
2019-03-27T21:03:29.215Z,45.93
2019-03-27T21:05:59.074Z,45.95
2019-03-27T21:08:28.552Z,46.40
2019-03-27T21:10:58.002Z,46.92
2019-03-27T21:13:27.848Z,46.56
2019-03-27T21:15:57.019Z,47.33
2019-03-27T21:18:27.101Z,47.26
2019-03-27T21:20:57.168Z,46.03
2019-03-27T21:23:26.379Z,46.58
2019-03-27T21:25:55.576Z,46.19
2019-03-27T21:28:24.994Z,46.18
2019-03-27T21:30:54.115Z,45.48
2019-03-27T21:33:23.277Z,45.03
2019-03-27T21:35:53.109Z,45.57
2019-03-27T21:38:22.381Z,46.18
2019-03-27T21:40:52.246Z,46.08
2019-03-27T21:43:22.085Z,45.52
2019-03-27T21:45:51.485Z,46.86
2019-03-27T21:48:20.669Z,47.79
2019-03-27T21:50:49.809Z,47.33
2019-03-27T21:53:18.935Z,47.01
2019-03-27T21:55:48.332Z,47.05
2019-03-27T21:58:17.478Z,45.85
2019-03-27T22:00:46.602Z,46.19
2019-03-27T22:03:16.028Z,45.13
2019-03-27T22:05:45.174Z,46.21
2019-03-27T22:08:14.541Z,45.27
2019-03-27T22:10:44.388Z,45.65
2019-03-27T22:13:13.582Z,45.77
2019-03-27T22:15:42.922Z,45.44
2019-03-27T22:18:13.005Z,44.69
2019-03-27T22:20:42.429Z,44.08
2019-03-27T22:23:11.571Z,45.21
2019-03-27T22:25:40.958Z,45.29
2019-03-27T22:28:10.115Z,45.17
2019-03-27T22:30:40.022Z,45.60
2019-03-27T22:33:09.165Z,45.38
2019-03-27T22:35:39.019Z,46.16
2019-03-27T22:38:08.395Z,45.83
2019-03-27T22:40:38.013Z,46.36
2019-03-27T22:43:07.156Z,46.50
2019-03-27T22:45:36.368Z,47.18
2019-03-27T22:48:05.567Z,45.94
2019-03-27T22:50:34.960Z,46.90
2019-03-27T22:53:04.253Z,45.59
2019-03-27T22:55:33.407Z,46.43
2019-03-27T22:58:02.570Z,46.79
2019-03-27T23:00:45.746Z,46.44
2019-03-27T23:03:18.420Z,44.83
2019-03-27T23:05:47.315Z,45.58
2019-03-27T23:08:16.496Z,45.00
2019-03-27T23:10:45.643Z,44.45
2019-03-27T23:13:14.857Z,44.53
2019-03-27T23:15:44.942Z,45.14
2019-03-27T23:18:14.156Z,45.10
2019-03-27T23:20:43.779Z,46.50
2019-03-27T23:23:13.621Z,46.94
2019-03-27T23:25:43.012Z,47.09
2019-03-27T23:28:12.143Z,46.51
2019-03-27T23:30:41.297Z,45.87
2019-03-27T23:33:10.449Z,46.36
2019-03-27T23:35:40.499Z,46.58
2019-03-27T23:38:09.876Z,45.65
2019-03-27T23:40:39.037Z,46.49
2019-03-27T23:43:09.212Z,46.09
2019-03-27T23:45:38.362Z,46.58
2019-03-27T23:48:07.514Z,46.46
2019-03-27T23:50:36.690Z,45.65
2019-03-27T23:53:06.096Z,45.08
2019-03-27T23:55:35.493Z,44.77
2019-03-27T23:58:04.717Z,46.29
